FYOW

Otjiwarongo Airport

Otjiwarongo, Namibia
METAR FYOW 172100Z AUTO 21004KT //// // ////// 23/04 Q1016
Observed Flight Rules
Feb-17 @ 21:00 UTC (36 minutes ago)
Wind
210° at 4 knots
Temperatures Readings
Current 23°C / 73°F
Dewpoint 4°C / 39°F
Humidity 29%
Altimeter 30" Hg
Pressure 1016 hPa
Elevation 1481
METAR FYOW 172100Z AUTO 21004KT //// // ////// 23/04 Q1016
Observed Flight Rules
Feb-17 @ 21:00 UTC
(36 minutes ago)
Wind
210° at 4 knots
Temperature Dewpoint
23°C / 73°F 4°C / 39°F
Humidity Altimeter Pressure
29% 30" Hg 1016 hPa